Time;durP1;ratioP1;P1;durP2;ratioP2;P2;SDS_P1;SDS_P2;PMS_P1;PMS_P2;Temp;Humidity;BMP_temperature;BMP_pressure;BME280_temperature;BME280_humidity;BME280_pressure;Samples;Min_cycle;Max_cycle;Signal;HPM_P1;HPM_P2
2021/10/16 00:00:17;;;;;;;17.08;10.48;;;;;;;;;;5033068;28;20080;-65
2021/10/16 00:02:44;;;;;;;20.00;11.52;;;;;;;;;;5033113;28;20410;-65
2021/10/16 00:05:10;;;;;;;20.10;11.63;;;;;;;;;;5032957;28;20309;-65
2021/10/16 00:07:38;;;;;;;20.67;11.63;;;;;;;;;;5031667;28;20061;-65
2021/10/16 00:10:06;;;;;;;21.05;11.13;;;;;;;;;;5032591;28;20049;-65
2021/10/16 00:12:33;;;;;;;24.63;12.45;;;;;;;;;;5032677;28;20045;-65
2021/10/16 00:15:00;;;;;;;20.98;12.27;;;;;;;;;;5032477;28;20072;-65
2021/10/16 00:17:28;;;;;;;23.33;11.98;;;;;;;;;;5032134;28;20060;-64
2021/10/16 00:19:55;;;;;;;21.33;11.98;;;;;;;;;;5032271;28;20509;-65
2021/10/16 00:22:22;;;;;;;19.33;11.52;;;;;;;;;;5032349;28;20053;-64
2021/10/16 00:24:49;;;;;;;19.83;11.15;;;;;;;;;;5032279;28;20049;-65
2021/10/16 00:27:17;;;;;;;22.25;11.95;;;;;;;;;;5032683;28;20510;-65
2021/10/16 00:29:44;;;;;;;21.27;12.40;;;;;;;;;;5032280;28;20414;-65
2021/10/16 00:32:12;;;;;;;20.83;11.05;;;;;;;;;;5032697;28;20125;-65
2021/10/16 00:34:40;;;;;;;22.13;13.68;;;;;;;;;;5032265;28;20045;-65
2021/10/16 00:37:07;;;;;;;22.98;12.27;;;;;;;;;;5031908;28;20049;-65
2021/10/16 00:39:34;;;;;;;18.77;10.82;;;;;;;;;;5032340;28;20049;-65
2021/10/16 00:42:01;;;;;;;22.90;12.68;;;;;;;;;;5032147;28;20410;-65
2021/10/16 00:44:28;;;;;;;18.95;10.50;;;;;;;;;;5032330;28;20143;-65
2021/10/16 00:46:57;;;;;;;24.05;12.32;;;;;;;;;;5032372;28;20486;-65
2021/10/16 00:49:24;;;;;;;21.67;11.70;;;;;;;;;;5032123;28;20490;-65
2021/10/16 00:51:52;;;;;;;19.80;11.57;;;;;;;;;;5032101;28;20054;-64
2021/10/16 00:54:21;;;;;;;20.63;11.32;;;;;;;;;;5032101;28;20056;-65
2021/10/16 00:56:50;;;;;;;23.90;13.25;;;;;;;;;;5043602;28;20076;-65
2021/10/16 00:59:19;;;;;;;21.10;11.30;;;;;;;;;;5051640;28;20494;-64
2021/10/16 01:01:46;;;;;;;23.65;12.23;;;;;;;;;;5051492;28;20132;-66
2021/10/16 01:04:14;;;;;;;21.98;11.27;;;;;;;;;;5051641;28;20052;-65
2021/10/16 01:06:41;;;;;;;22.75;11.93;;;;;;;;;;5051555;28;20064;-64
2021/10/16 01:09:10;;;;;;;19.70;11.23;;;;;;;;;;5051658;28;20506;-66
2021/10/16 01:11:39;;;;;;;21.73;12.65;;;;;;;;;;5051741;28;20049;-65
2021/10/16 01:14:07;;;;;;;20.00;11.98;;;;;;;;;;5051903;28;20045;-64
2021/10/16 01:16:35;;;;;;;24.70;13.18;;;;;;;;;;5051163;28;20139;-65
2021/10/16 01:19:06;;;;;;;24.13;12.77;;;;;;;;;;5055255;28;20053;-65
2021/10/16 01:21:37;;;;;;;20.77;11.85;;;;;;;;;;5055461;28;20055;-64
2021/10/16 01:24:05;;;;;;;24.80;13.02;;;;;;;;;;5055487;28;20049;-64
2021/10/16 01:26:33;;;;;;;21.67;12.52;;;;;;;;;;5054984;28;20070;-64
2021/10/16 01:29:01;;;;;;;22.27;11.70;;;;;;;;;;5055366;28;20053;-64
2021/10/16 01:31:28;;;;;;;20.92;12.18;;;;;;;;;;5055123;28;20045;-64
2021/10/16 01:33:55;;;;;;;19.30;11.68;;;;;;;;;;5055297;28;20056;-65
2021/10/16 01:36:22;;;;;;;25.45;14.40;;;;;;;;;;5055165;28;20048;-64
2021/10/16 01:38:51;;;;;;;22.85;12.55;;;;;;;;;;5055078;28;20052;-65
2021/10/16 01:41:18;;;;;;;21.42;13.07;;;;;;;;;;5055066;28;20045;-65
2021/10/16 01:44:32;;;;;;;24.42;13.23;;;;;;;;;;5054260;28;20056;-65
2021/10/16 01:53:52;;;;;;;22.63;12.38;;;;;;;;;;5055043;28;20047;-65
2021/10/16 01:59:41;;;;;;;22.02;12.50;;;;;;;;;;5039936;28;20075;-62
2021/10/16 02:08:53;;;;;;;27.20;14.07;;;;;;;;;;5051680;28;20160;-64
2021/10/16 02:18:14;;;;;;;25.48;14.50;;;;;;;;;;5054646;28;20044;-64
2021/10/16 02:27:33;;;;;;;27.42;14.18;;;;;;;;;;5047659;28;20230;-65
2021/10/16 02:30:00;;;;;;;31.08;14.45;;;;;;;;;;5033709;28;20045;-64
2021/10/16 02:35:48;;;;;;;29.27;15.85;;;;;;;;;;5052408;28;20102;-65
2021/10/16 02:38:15;;;;;;;29.38;14.88;;;;;;;;;;5054244;28;20049;-65
2021/10/16 02:40:43;;;;;;;27.95;14.40;;;;;;;;;;5054364;28;20417;-64
2021/10/16 02:43:11;;;;;;;26.20;14.98;;;;;;;;;;5054091;28;20049;-65
2021/10/16 02:45:38;;;;;;;26.23;14.77;;;;;;;;;;5054246;28;20040;-65
2021/10/16 02:48:05;;;;;;;31.02;14.93;;;;;;;;;;5053791;28;20049;-65
2021/10/16 02:50:32;;;;;;;26.75;13.95;;;;;;;;;;5053842;28;20049;-64
2021/10/16 02:52:59;;;;;;;21.67;13.70;;;;;;;;;;5054239;28;20418;-65
2021/10/16 02:55:26;;;;;;;22.15;13.43;;;;;;;;;;5053950;28;20052;-65
2021/10/16 02:57:53;;;;;;;23.80;12.90;;;;;;;;;;5053484;28;20052;-63
2021/10/16 03:00:22;;;;;;;24.52;12.63;;;;;;;;;;5053961;28;20056;-62
2021/10/16 03:02:48;;;;;;;25.17;12.98;;;;;;;;;;5053985;28;20127;-62
2021/10/16 03:05:15;;;;;;;22.90;14.15;;;;;;;;;;5053668;28;20053;-63
2021/10/16 03:07:42;;;;;;;21.48;11.88;;;;;;;;;;5053452;28;20061;-62
2021/10/16 03:10:10;;;;;;;24.20;13.63;;;;;;;;;;5053523;28;20068;-63
2021/10/16 03:12:37;;;;;;;27.13;13.63;;;;;;;;;;5053620;28;20055;-62
2021/10/16 03:15:04;;;;;;;24.33;14.82;;;;;;;;;;5053571;28;20082;-62
2021/10/16 03:17:33;;;;;;;24.52;14.48;;;;;;;;;;5053024;28;20092;-60
2021/10/16 03:20:00;;;;;;;28.92;14.32;;;;;;;;;;5052251;28;20131;-64
2021/10/16 03:22:27;;;;;;;25.15;13.85;;;;;;;;;;5052645;28;20049;-62
2021/10/16 03:24:54;;;;;;;25.83;14.70;;;;;;;;;;5053610;28;20057;-62
2021/10/16 03:30:43;;;;;;;25.23;13.45;;;;;;;;;;5051686;28;20040;-64
2021/10/16 03:36:33;;;;;;;27.25;14.63;;;;;;;;;;5050574;28;20059;-65
2021/10/16 03:39:00;;;;;;;26.90;14.73;;;;;;;;;;5052971;28;20053;-65
2021/10/16 03:41:27;;;;;;;25.80;15.23;;;;;;;;;;5052330;28;20048;-64
2021/10/16 03:43:54;;;;;;;26.80;14.65;;;;;;;;;;5053103;28;20049;-64
2021/10/16 03:46:21;;;;;;;22.27;12.40;;;;;;;;;;5053160;28;20394;-65
2021/10/16 03:48:48;;;;;;;25.17;14.27;;;;;;;;;;5052934;28;20081;-65
2021/10/16 03:51:15;;;;;;;22.70;13.20;;;;;;;;;;5052836;28;20414;-65
2021/10/16 03:53:43;;;;;;;22.52;13.48;;;;;;;;;;5052908;28;20055;-65
2021/10/16 03:56:10;;;;;;;26.75;14.77;;;;;;;;;;5046016;28;20048;-65
2021/10/16 03:58:37;;;;;;;24.63;14.32;;;;;;;;;;5032502;28;20414;-65
2021/10/16 04:01:04;;;;;;;25.02;14.18;;;;;;;;;;5032607;28;20054;-63
2021/10/16 04:03:31;;;;;;;25.27;14.15;;;;;;;;;;5033048;28;20131;-64
2021/10/16 04:05:58;;;;;;;25.90;13.98;;;;;;;;;;5032740;28;20045;-64
2021/10/16 04:08:25;;;;;;;27.98;15.88;;;;;;;;;;5032238;28;20057;-65
2021/10/16 04:10:54;;;;;;;26.63;14.43;;;;;;;;;;5032566;28;20483;-64
2021/10/16 04:13:21;;;;;;;28.60;13.98;;;;;;;;;;5032654;28;20049;-64
2021/10/16 04:15:48;;;;;;;28.10;14.85;;;;;;;;;;5032772;28;20143;-65
2021/10/16 04:18:15;;;;;;;29.02;15.85;;;;;;;;;;5032191;28;20046;-64
2021/10/16 04:20:42;;;;;;;24.15;13.63;;;;;;;;;;5032414;28;20140;-65
2021/10/16 04:23:09;;;;;;;26.75;15.25;;;;;;;;;;5032506;28;20454;-63
2021/10/16 04:28:59;;;;;;;26.33;15.90;;;;;;;;;;5032920;28;20043;-65
2021/10/16 04:31:26;;;;;;;28.55;14.95;;;;;;;;;;5052086;28;20124;-63
2021/10/16 04:33:53;;;;;;;28.85;15.48;;;;;;;;;;5052034;28;20049;-66
2021/10/16 04:36:19;;;;;;;31.48;16.60;;;;;;;;;;5052418;28;20494;-64
2021/10/16 04:38:48;;;;;;;29.75;15.05;;;;;;;;;;5051753;28;20482;-65
2021/10/16 04:41:15;;;;;;;30.38;15.15;;;;;;;;;;5051877;28;20100;-65
2021/10/16 04:43:42;;;;;;;28.05;15.68;;;;;;;;;;5052028;28;20072;-64
2021/10/16 04:46:12;;;;;;;28.15;16.23;;;;;;;;;;5051841;28;20059;-64
2021/10/16 04:48:39;;;;;;;35.83;17.55;;;;;;;;;;5051831;28;20055;-66
2021/10/16 04:51:07;;;;;;;34.78;17.55;;;;;;;;;;5051678;28;20502;-64
2021/10/16 04:53:33;;;;;;;37.15;18.35;;;;;;;;;;5051771;28;20513;-64
2021/10/16 04:56:00;;;;;;;33.28;18.10;;;;;;;;;;5051638;28;20049;-64
2021/10/16 04:58:27;;;;;;;40.53;18.85;;;;;;;;;;5051683;28;20517;-65
2021/10/16 05:00:54;;;;;;;39.33;17.67;;;;;;;;;;5051424;28;20049;-64
2021/10/16 05:03:22;;;;;;;33.22;16.85;;;;;;;;;;5051766;28;20053;-65
2021/10/16 05:05:49;;;;;;;37.72;17.20;;;;;;;;;;5051686;28;20049;-65
2021/10/16 05:08:17;;;;;;;32.67;17.15;;;;;;;;;;5051487;28;20147;-64
2021/10/16 05:10:44;;;;;;;35.00;18.48;;;;;;;;;;5051617;28;20060;-64
2021/10/16 05:13:11;;;;;;;35.58;17.23;;;;;;;;;;5051884;28;20053;-63
2021/10/16 05:15:38;;;;;;;32.70;17.20;;;;;;;;;;5051572;28;20053;-65
2021/10/16 05:18:05;;;;;;;36.40;18.13;;;;;;;;;;5051478;28;20414;-64
2021/10/16 05:20:33;;;;;;;40.55;19.85;;;;;;;;;;5051576;28;20106;-64
2021/10/16 05:23:00;;;;;;;31.75;16.70;;;;;;;;;;5051577;28;20506;-66
2021/10/16 05:25:26;;;;;;;35.28;18.38;;;;;;;;;;5051872;28;20509;-65
2021/10/16 05:27:53;;;;;;;33.75;17.73;;;;;;;;;;5051545;28;20056;-64
2021/10/16 05:30:20;;;;;;;32.17;16.98;;;;;;;;;;5051304;28;20498;-64
2021/10/16 05:32:47;;;;;;;35.63;17.42;;;;;;;;;;5051751;28;20048;-65
2021/10/16 05:35:14;;;;;;;33.08;17.40;;;;;;;;;;5085292;22;20067;-62
2021/10/16 05:37:42;;;;;;;38.00;17.73;;;;;;;;;;5092206;28;20044;-63
2021/10/16 05:40:10;;;;;;;36.53;18.15;;;;;;;;;;5092194;28;20055;-62
2021/10/16 05:42:37;;;;;;;40.03;19.38;;;;;;;;;;5091924;28;20435;-62
2021/10/16 05:45:05;;;;;;;36.88;18.13;;;;;;;;;;5091871;28;20055;-63
2021/10/16 05:47:32;;;;;;;35.90;18.00;;;;;;;;;;5092143;28;20111;-64
2021/10/16 05:49:59;;;;;;;40.25;20.23;;;;;;;;;;5091744;28;20043;-63
2021/10/16 05:52:26;;;;;;;41.78;19.90;;;;;;;;;;5091676;28;20059;-64
2021/10/16 06:01:45;;;;;;;37.13;18.23;;;;;;;;;;5091915;28;20341;-63
2021/10/16 06:07:34;;;;;;;38.72;18.25;;;;;;;;;;5095558;28;20039;-63
2021/10/16 06:10:01;;;;;;;45.35;19.50;;;;;;;;;;5095624;28;20066;-63
2021/10/16 06:12:28;;;;;;;35.10;18.00;;;;;;;;;;5095131;28;20075;-62
2021/10/16 06:14:55;;;;;;;36.95;17.50;;;;;;;;;;5095279;28;20051;-63
2021/10/16 06:17:24;;;;;;;40.67;18.95;;;;;;;;;;5095046;28;20050;-64
2021/10/16 06:19:52;;;;;;;42.55;18.92;;;;;;;;;;5094756;28;20052;-65
2021/10/16 06:22:42;;;;;;;36.75;18.02;;;;;;;;;;5071893;28;20056;-64
2021/10/16 06:25:09;;;;;;;39.35;19.88;;;;;;;;;;5088107;28;20056;-63
2021/10/16 06:27:36;;;;;;;36.17;18.70;;;;;;;;;;5095158;28;20477;-63
2021/10/16 06:30:04;;;;;;;37.50;19.30;;;;;;;;;;5095084;28;20055;-65
2021/10/16 06:32:32;;;;;;;36.35;19.73;;;;;;;;;;5095510;28;20165;-63
2021/10/16 06:35:02;;;;;;;43.08;20.88;;;;;;;;;;5094946;28;20058;-64
2021/10/16 06:37:29;;;;;;;40.58;19.02;;;;;;;;;;5095064;28;20554;-63
2021/10/16 06:39:56;;;;;;;37.30;19.88;;;;;;;;;;5094518;28;20040;-63
2021/10/16 06:42:23;;;;;;;38.97;19.17;;;;;;;;;;5094492;28;20055;-64
2021/10/16 06:44:50;;;;;;;42.05;21.00;;;;;;;;;;5094753;28;20508;-62
2021/10/16 06:47:16;;;;;;;40.33;19.17;;;;;;;;;;5094555;28;20051;-64
2021/10/16 06:49:45;;;;;;;39.85;19.45;;;;;;;;;;5094547;28;20049;-63
2021/10/16 06:52:12;;;;;;;45.33;21.60;;;;;;;;;;5094722;28;20058;-64
2021/10/16 06:54:39;;;;;;;43.42;21.95;;;;;;;;;;5094446;28;20283;-64
2021/10/16 06:57:06;;;;;;;42.35;21.15;;;;;;;;;;5094256;28;20047;-63
2021/10/16 06:59:33;;;;;;;38.55;21.55;;;;;;;;;;5094231;28;20050;-64
2021/10/16 07:02:00;;;;;;;38.03;19.13;;;;;;;;;;5094095;28;20476;-62
2021/10/16 07:04:26;;;;;;;39.53;20.92;;;;;;;;;;5094088;28;20059;-63
2021/10/16 07:06:55;;;;;;;38.85;21.38;;;;;;;;;;5094007;28;20051;-61
2021/10/16 07:09:22;;;;;;;34.28;18.27;;;;;;;;;;5094318;28;20112;-63
2021/10/16 07:11:51;;;;;;;46.35;23.65;;;;;;;;;;5094471;28;20439;-63
2021/10/16 07:14:18;;;;;;;43.25;20.50;;;;;;;;;;5094304;28;20531;-65
2021/10/16 07:16:45;;;;;;;40.20;19.35;;;;;;;;;;5093901;28;20052;-64
2021/10/16 07:19:12;;;;;;;39.00;19.38;;;;;;;;;;5093814;28;20169;-63
2021/10/16 07:21:39;;;;;;;38.92;18.48;;;;;;;;;;5094188;28;20058;-65
2021/10/16 07:24:07;;;;;;;41.20;20.35;;;;;;;;;;5093460;28;20501;-64
2021/10/16 07:26:34;;;;;;;45.08;23.75;;;;;;;;;;5093766;28;20495;-63
2021/10/16 07:29:01;;;;;;;52.38;27.27;;;;;;;;;;5093568;28;20052;-63
2021/10/16 07:31:29;;;;;;;47.13;23.50;;;;;;;;;;5093511;28;20044;-62
2021/10/16 07:33:56;;;;;;;47.55;24.52;;;;;;;;;;5093498;28;20056;-64
2021/10/16 07:36:24;;;;;;;47.80;24.25;;;;;;;;;;5093891;28;20412;-64
2021/10/16 07:38:51;;;;;;;45.30;23.60;;;;;;;;;;5093512;28;20051;-63
2021/10/16 07:41:19;;;;;;;42.30;25.02;;;;;;;;;;5093516;28;20542;-64
2021/10/16 07:50:30;;;;;;;39.38;21.23;;;;;;;;;;5093494;28;20161;-63
2021/10/16 07:52:57;;;;;;;42.13;19.75;;;;;;;;;;5093019;28;20063;-63
2021/10/16 07:55:24;;;;;;;37.17;18.20;;;;;;;;;;5092992;28;20052;-64
2021/10/16 07:57:52;;;;;;;39.03;20.05;;;;;;;;;;5093069;28;20052;-63
2021/10/16 08:00:20;;;;;;;43.63;22.48;;;;;;;;;;5093235;28;20489;-62
2021/10/16 08:02:46;;;;;;;40.40;20.20;;;;;;;;;;5092778;28;20056;-63
2021/10/16 08:05:14;;;;;;;42.83;20.30;;;;;;;;;;5093037;28;20531;-65
2021/10/16 08:07:42;;;;;;;46.33;21.73;;;;;;;;;;5092748;28;20048;-63
2021/10/16 08:10:10;;;;;;;61.58;32.63;;;;;;;;;;5092991;28;20043;-65
2021/10/16 08:12:37;;;;;;;53.10;28.08;;;;;;;;;;5092789;28;20052;-64
2021/10/16 08:15:06;;;;;;;39.60;20.63;;;;;;;;;;5092620;28;20067;-64
2021/10/16 08:20:56;;;;;;;42.15;21.52;;;;;;;;;;5093023;28;20047;-65
2021/10/16 08:23:33;;;;;;;40.10;21.40;;;;;;;;;;5092602;28;20408;-65
2021/10/16 08:26:00;;;;;;;44.15;21.40;;;;;;;;;;5092726;28;20101;-64
2021/10/16 08:28:29;;;;;;;41.53;22.25;;;;;;;;;;5092127;28;20055;-63
2021/10/16 08:31:01;;;;;;;45.88;24.27;;;;;;;;;;5092407;28;20048;-64
2021/10/16 08:33:33;;;;;;;42.00;22.95;;;;;;;;;;5092835;28;20409;-64
2021/10/16 08:36:00;;;;;;;46.88;22.65;;;;;;;;;;5093254;28;20135;-65
2021/10/16 08:38:27;;;;;;;44.63;22.30;;;;;;;;;;5092371;28;20048;-63
2021/10/16 08:40:54;;;;;;;42.85;22.83;;;;;;;;;;5092266;28;20052;-63
2021/10/16 08:43:22;;;;;;;40.20;21.42;;;;;;;;;;5092559;28;20134;-63
2021/10/16 08:45:48;;;;;;;42.42;21.92;;;;;;;;;;5092540;28;20116;-63
2021/10/16 08:48:17;;;;;;;42.35;21.50;;;;;;;;;;5092625;28;20044;-63
2021/10/16 08:50:46;;;;;;;46.88;22.83;;;;;;;;;;5092264;28;20056;-63
2021/10/16 08:53:13;;;;;;;46.55;24.52;;;;;;;;;;5092349;28;20047;-63
2021/10/16 08:55:41;;;;;;;47.83;24.13;;;;;;;;;;5092069;28;20043;-63
2021/10/16 08:58:08;;;;;;;41.10;21.75;;;;;;;;;;5092408;28;20136;-63
2021/10/16 09:00:42;;;;;;;43.72;22.77;;;;;;;;;;5091863;28;20097;-63
2021/10/16 09:03:23;;;;;;;39.83;19.30;;;;;;;;;;5092531;28;20142;-64
2021/10/16 09:06:11;;;;;;;43.80;21.80;;;;;;;;;;5091963;28;20048;-66
2021/10/16 09:08:47;;;;;;;43.00;21.75;;;;;;;;;;5092290;28;20481;-63
2021/10/16 09:11:20;;;;;;;39.78;20.33;;;;;;;;;;5092414;28;20048;-64
2021/10/16 09:13:49;;;;;;;39.50;20.55;;;;;;;;;;5092326;28;20511;-65
2021/10/16 09:16:21;;;;;;;41.85;19.88;;;;;;;;;;5091925;28;20477;-63
2021/10/16 09:18:54;;;;;;;36.65;20.27;;;;;;;;;;5092630;28;20052;-70
2021/10/16 09:21:23;;;;;;;43.63;22.30;;;;;;;;;;5092468;28;20048;-69
2021/10/16 09:24:16;;;;;;;43.55;22.23;;;;;;;;;;5092052;28;20093;-64
2021/10/16 09:26:45;;;;;;;38.92;20.85;;;;;;;;;;5092107;28;20468;-63
2021/10/16 09:29:16;;;;;;;33.20;18.08;;;;;;;;;;5092283;28;20048;-63
2021/10/16 09:31:46;;;;;;;43.83;22.08;;;;;;;;;;5092106;28;20560;-63
2021/10/16 09:34:21;;;;;;;35.35;19.27;;;;;;;;;;5092056;28;20062;-63
2021/10/16 09:36:48;;;;;;;32.67;17.10;;;;;;;;;;5092167;28;20489;-63
2021/10/16 09:39:17;;;;;;;33.28;17.92;;;;;;;;;;5092371;28;20048;-63
2021/10/16 09:41:45;;;;;;;31.00;16.27;;;;;;;;;;5095853;28;20507;-64
2021/10/16 09:44:27;;;;;;;34.60;17.00;;;;;;;;;;5095961;28;20048;-62
2021/10/16 09:47:06;;;;;;;31.88;16.33;;;;;;;;;;5096041;28;20052;-65
2021/10/16 09:49:37;;;;;;;35.15;18.35;;;;;;;;;;5095856;28;20443;-63
2021/10/16 09:52:06;;;;;;;28.60;15.68;;;;;;;;;;5095945;28;20051;-63
2021/10/16 09:54:35;;;;;;;33.92;17.80;;;;;;;;;;5095717;28;20059;-63
2021/10/16 09:57:06;;;;;;;28.23;15.93;;;;;;;;;;5088334;28;20102;-62
2021/10/16 09:59:35;;;;;;;29.25;15.32;;;;;;;;;;5085698;28;20121;-64
2021/10/16 10:02:03;;;;;;;29.85;14.55;;;;;;;;;;5085010;28;20497;-63
2021/10/16 10:04:33;;;;;;;23.85;13.23;;;;;;;;;;5083585;28;20052;-63
2021/10/16 10:07:02;;;;;;;25.00;13.80;;;;;;;;;;5084713;28;20074;-62
2021/10/16 10:09:30;;;;;;;24.92;13.07;;;;;;;;;;5085449;28;20056;-62
2021/10/16 10:11:57;;;;;;;24.90;13.40;;;;;;;;;;5083678;28;20124;-64
2021/10/16 10:14:25;;;;;;;25.98;13.07;;;;;;;;;;5083661;28;20086;-63
2021/10/16 10:16:53;;;;;;;21.63;12.20;;;;;;;;;;5089273;28;20059;-63
2021/10/16 10:19:22;;;;;;;22.38;12.05;;;;;;;;;;5087933;28;20052;-62
2021/10/16 10:21:50;;;;;;;25.08;11.48;;;;;;;;;;5084748;28;20455;-63
2021/10/16 10:24:18;;;;;;;22.60;13.18;;;;;;;;;;5083386;28;20490;-63
2021/10/16 10:26:47;;;;;;;22.30;10.90;;;;;;;;;;5083956;28;20081;-63
2021/10/16 10:29:17;;;;;;;19.55;10.57;;;;;;;;;;5085061;28;20048;-63
2021/10/16 10:31:59;;;;;;;21.83;11.40;;;;;;;;;;5077155;28;20399;-64
2021/10/16 10:34:33;;;;;;;21.38;12.40;;;;;;;;;;5075120;28;20493;-63
2021/10/16 10:37:04;;;;;;;20.23;11.55;;;;;;;;;;5074931;28;20218;-63
2021/10/16 10:40:03;;;;;;;22.60;13.05;;;;;;;;;;5075057;28;20070;-62
2021/10/16 10:42:54;;;;;;;21.15;11.88;;;;;;;;;;5064559;28;20131;-62
2021/10/16 10:45:41;;;;;;;20.75;12.48;;;;;;;;;;5074331;28;20076;-62
2021/10/16 10:48:16;;;;;;;24.65;13.25;;;;;;;;;;5074066;28;20460;-62
2021/10/16 10:50:59;;;;;;;25.20;13.15;;;;;;;;;;5073463;28;20421;-63
2021/10/16 10:53:38;;;;;;;24.88;13.35;;;;;;;;;;5074331;28;20064;-63
2021/10/16 10:56:21;;;;;;;22.52;11.50;;;;;;;;;;5079985;28;20051;-62
2021/10/16 10:59:14;;;;;;;24.05;12.48;;;;;;;;;;5094405;28;20497;-63
2021/10/16 11:02:08;;;;;;;19.85;10.73;;;;;;;;;;5094125;28;20043;-61
2021/10/16 11:04:51;;;;;;;33.97;18.48;;;;;;;;;;5094704;28;20112;-63
2021/10/16 11:07:31;;;;;;;27.67;15.07;;;;;;;;;;5093918;28;20048;-62
2021/10/16 11:09:59;;;;;;;21.90;13.47;;;;;;;;;;5094400;28;20150;-63
2021/10/16 11:12:32;;;;;;;21.27;12.35;;;;;;;;;;5094310;28;20288;-63
2021/10/16 11:15:00;;;;;;;22.92;11.07;;;;;;;;;;5094335;28;20131;-63
2021/10/16 11:17:39;;;;;;;19.77;11.93;;;;;;;;;;5088144;28;20097;-62
2021/10/16 11:20:09;;;;;;;18.08;10.45;;;;;;;;;;5073860;28;20049;-63
2021/10/16 11:22:45;;;;;;;14.60;8.80;;;;;;;;;;5073647;28;20057;-62
2021/10/16 11:25:21;;;;;;;15.93;9.05;;;;;;;;;;5073670;28;20055;-63
2021/10/16 11:28:09;;;;;;;19.67;11.35;;;;;;;;;;5073143;28;20107;-62
2021/10/16 11:30:39;;;;;;;24.02;11.55;;;;;;;;;;5073526;28;20558;-65
2021/10/16 11:33:09;;;;;;;18.00;10.13;;;;;;;;;;5073071;28;20149;-64
2021/10/16 11:35:37;;;;;;;19.27;11.13;;;;;;;;;;5075230;22;20038;-63
2021/10/16 11:38:04;;;;;;;20.95;11.98;;;;;;;;;;5033461;28;20045;-63
2021/10/16 11:40:32;;;;;;;21.13;11.57;;;;;;;;;;5033343;28;20053;-63
2021/10/16 11:43:02;;;;;;;18.33;11.55;;;;;;;;;;5033655;28;20049;-63
2021/10/16 11:45:33;;;;;;;17.60;11.57;;;;;;;;;;5033725;28;20484;-63
2021/10/16 11:48:02;;;;;;;18.17;10.55;;;;;;;;;;5033968;28;20076;-63
2021/10/16 11:50:31;;;;;;;17.60;10.45;;;;;;;;;;5033466;28;20145;-64
2021/10/16 11:53:09;;;;;;;19.67;11.25;;;;;;;;;;5033271;28;20065;-63
2021/10/16 11:55:37;;;;;;;20.60;10.82;;;;;;;;;;5033317;28;20060;-62
2021/10/16 11:58:05;;;;;;;19.65;10.80;;;;;;;;;;5033048;28;20049;-63
2021/10/16 12:00:36;;;;;;;18.88;11.27;;;;;;;;;;5015524;28;20480;-63
2021/10/16 12:03:08;;;;;;;18.30;10.70;;;;;;;;;;5031968;28;20057;-64
2021/10/16 12:05:36;;;;;;;15.07;9.25;;;;;;;;;;5033790;28;20057;-64
2021/10/16 12:08:13;;;;;;;16.08;9.25;;;;;;;;;;5032904;28;20568;-62
2021/10/16 12:10:46;;;;;;;16.70;9.15;;;;;;;;;;5032943;28;20132;-61
2021/10/16 12:13:14;;;;;;;15.05;9.10;;;;;;;;;;5032934;28;20568;-62
2021/10/16 12:15:45;;;;;;;14.18;9.07;;;;;;;;;;5033011;28;20384;-62
2021/10/16 12:18:20;;;;;;;15.82;9.73;;;;;;;;;;5032943;28;20045;-62
2021/10/16 12:20:51;;;;;;;15.50;8.82;;;;;;;;;;5032678;28;20054;-60
2021/10/16 12:23:20;;;;;;;14.35;8.05;;;;;;;;;;5032914;28;20045;-63
2021/10/16 12:25:50;;;;;;;15.43;8.40;;;;;;;;;;5032701;28;20073;-62
2021/10/16 12:28:17;;;;;;;18.25;11.75;;;;;;;;;;5032904;28;20479;-64
2021/10/16 12:31:16;;;;;;;18.20;11.07;;;;;;;;;;5032722;28;20053;-62
2021/10/16 12:34:06;;;;;;;16.98;9.80;;;;;;;;;;5032651;28;20136;-63
2021/10/16 12:36:36;;;;;;;22.20;11.38;;;;;;;;;;5032634;28;20057;-63
2021/10/16 12:39:05;;;;;;;20.20;11.27;;;;;;;;;;5032668;28;20045;-63
2021/10/16 12:41:35;;;;;;;12.88;8.10;;;;;;;;;;5032324;28;20053;-65
2021/10/16 12:44:16;;;;;;;;;;;;;;;;;;5032770;28;20139;-62
2021/10/16 12:46:45;;;;;;;13.52;8.70;;;;;;;;;;5032238;28;20008;-62
2021/10/16 12:49:30;;;;;;;15.53;9.03;;;;;;;;;;5032271;28;20059;-63
2021/10/16 12:51:58;;;;;;;29.05;14.43;;;;;;;;;;5031934;28;20293;-62
2021/10/16 12:54:39;;;;;;;18.35;10.02;;;;;;;;;;5032246;28;20069;-63
2021/10/16 12:57:09;;;;;;;14.13;8.85;;;;;;;;;;5031900;28;20107;-63
2021/10/16 12:59:37;;;;;;;16.83;9.43;;;;;;;;;;5032518;28;20049;-63
2021/10/16 13:02:05;;;;;;;14.02;7.82;;;;;;;;;;5032779;28;20768;-63
2021/10/16 13:04:40;;;;;;;14.40;8.00;;;;;;;;;;5032719;28;20048;-64
2021/10/16 13:07:07;;;;;;;12.30;7.05;;;;;;;;;;5032089;28;20050;-63
2021/10/16 13:09:34;;;;;;;11.85;6.70;;;;;;;;;;5032387;28;20049;-62
2021/10/16 13:12:01;;;;;;;11.07;7.28;;;;;;;;;;5032001;28;20410;-61
2021/10/16 13:14:28;;;;;;;11.57;6.68;;;;;;;;;;5034724;28;20410;-63
2021/10/16 13:16:55;;;;;;;12.32;7.55;;;;;;;;;;5036219;28;20670;-63
2021/10/16 13:19:23;;;;;;;12.07;6.72;;;;;;;;;;5036204;28;20064;-63
2021/10/16 13:21:50;;;;;;;13.98;8.10;;;;;;;;;;5036302;28;20049;-62
2021/10/16 13:24:18;;;;;;;12.15;6.40;;;;;;;;;;5036146;28;20049;-62
2021/10/16 13:26:45;;;;;;;11.13;6.15;;;;;;;;;;5036409;28;20140;-63
2021/10/16 13:29:13;;;;;;;11.90;6.63;;;;;;;;;;5036359;28;20052;-65
2021/10/16 13:31:41;;;;;;;15.38;7.55;;;;;;;;;;5036780;28;20053;-63
2021/10/16 13:34:08;;;;;;;10.93;6.05;;;;;;;;;;5035902;28;20049;-64
2021/10/16 13:36:36;;;;;;;76.50;33.35;;;;;;;;;;5035924;28;20056;-65
2021/10/16 13:39:04;;;;;;;63.70;25.58;;;;;;;;;;5035763;28;20061;-63
2021/10/16 13:41:32;;;;;;;14.15;7.35;;;;;;;;;;5035955;28;20056;-63
2021/10/16 13:44:00;;;;;;;9.93;6.25;;;;;;;;;;5036554;28;20142;-62
2021/10/16 13:46:26;;;;;;;8.88;4.78;;;;;;;;;;5036245;28;20080;-63
2021/10/16 13:48:53;;;;;;;11.23;6.25;;;;;;;;;;5035657;28;20055;-64
2021/10/16 13:51:20;;;;;;;10.00;5.65;;;;;;;;;;5035851;28;20049;-61
2021/10/16 13:53:49;;;;;;;8.98;5.70;;;;;;;;;;5036294;28;20056;-62
2021/10/16 13:56:16;;;;;;;9.48;5.13;;;;;;;;;;5036010;28;20071;-62
2021/10/16 13:58:43;;;;;;;7.32;4.40;;;;;;;;;;5035882;28;20453;-63
2021/10/16 14:01:10;;;;;;;8.68;4.82;;;;;;;;;;5036201;28;20049;-64
2021/10/16 14:03:37;;;;;;;7.93;4.80;;;;;;;;;;5035523;28;20511;-63
2021/10/16 14:06:04;;;;;;;9.60;5.18;;;;;;;;;;5035798;28;20099;-62
2021/10/16 14:08:31;;;;;;;9.63;5.38;;;;;;;;;;5035466;28;20427;-61
2021/10/16 14:10:59;;;;;;;9.90;4.97;;;;;;;;;;5035778;28;20107;-63
2021/10/16 14:13:26;;;;;;;9.57;4.63;;;;;;;;;;5035295;28;20490;-62
2021/10/16 14:15:53;;;;;;;9.05;4.85;;;;;;;;;;5035541;28;20045;-62
2021/10/16 14:18:20;;;;;;;10.32;4.90;;;;;;;;;;5035110;28;20045;-62
2021/10/16 14:20:47;;;;;;;7.82;4.63;;;;;;;;;;5035357;28;20049;-64
2021/10/16 14:23:14;;;;;;;8.52;5.38;;;;;;;;;;5035340;28;20080;-64
2021/10/16 14:25:41;;;;;;;9.27;5.60;;;;;;;;;;5033877;28;20115;-62
2021/10/16 14:28:10;;;;;;;10.10;5.63;;;;;;;;;;5035223;28;20088;-63
2021/10/16 14:30:37;;;;;;;9.82;4.70;;;;;;;;;;5035599;28;20088;-63
2021/10/16 14:33:04;;;;;;;8.98;5.30;;;;;;;;;;5034939;28;20524;-64
2021/10/16 14:35:31;;;;;;;7.53;4.53;;;;;;;;;;5034626;28;20049;-63
2021/10/16 14:37:58;;;;;;;7.85;4.28;;;;;;;;;;5034870;28;20053;-63
2021/10/16 14:40:25;;;;;;;10.23;4.43;;;;;;;;;;5034447;28;20056;-63
2021/10/16 14:42:52;;;;;;;8.05;5.40;;;;;;;;;;5035059;28;20081;-64
2021/10/16 14:45:20;;;;;;;7.22;4.68;;;;;;;;;;5035580;28;20053;-62
2021/10/16 14:47:47;;;;;;;9.73;4.82;;;;;;;;;;5034427;28;20053;-62
2021/10/16 14:50:14;;;;;;;9.63;5.38;;;;;;;;;;5034407;28;20060;-63
2021/10/16 14:52:41;;;;;;;9.70;5.65;;;;;;;;;;5034505;28;20057;-62
2021/10/16 14:55:09;;;;;;;8.63;4.78;;;;;;;;;;5034037;28;20046;-62
2021/10/16 14:57:36;;;;;;;8.75;4.85;;;;;;;;;;5034214;28;20049;-63
2021/10/16 15:00:05;;;;;;;8.65;4.88;;;;;;;;;;5033783;28;20483;-62
2021/10/16 15:02:38;;;;;;;8.50;5.10;;;;;;;;;;5034039;28;20140;-63
2021/10/16 15:05:05;;;;;;;10.60;5.00;;;;;;;;;;5034287;28;20406;-63
2021/10/16 15:07:32;;;;;;;8.68;5.25;;;;;;;;;;5034009;28;20056;-63
2021/10/16 15:09:59;;;;;;;10.10;5.53;;;;;;;;;;5034078;28;20414;-61
2021/10/16 15:12:26;;;;;;;11.07;6.38;;;;;;;;;;5034675;28;20418;-63
2021/10/16 15:14:53;;;;;;;10.48;6.15;;;;;;;;;;5034331;28;20087;-63
2021/10/16 15:17:20;;;;;;;11.25;6.38;;;;;;;;;;5034408;28;20491;-63
2021/10/16 15:19:48;;;;;;;11.18;5.82;;;;;;;;;;5034139;28;20050;-63
2021/10/16 15:22:15;;;;;;;11.10;6.22;;;;;;;;;;5033912;28;20391;-63
2021/10/16 15:24:43;;;;;;;12.10;6.80;;;;;;;;;;5033652;28;20056;-63
2021/10/16 15:27:10;;;;;;;13.07;6.32;;;;;;;;;;5033669;28;20049;-62
2021/10/16 15:29:37;;;;;;;11.98;6.55;;;;;;;;;;5033826;28;20053;-63
2021/10/16 15:32:04;;;;;;;10.93;6.18;;;;;;;;;;5033712;28;20061;-63
2021/10/16 15:34:31;;;;;;;10.27;6.15;;;;;;;;;;5033510;28;20124;-63
2021/10/16 15:37:01;;;;;;;12.07;5.97;;;;;;;;;;5033351;28;20418;-62